Ravenna, Ohio
Current Conditions -  °F | °C
As of 12:57 PM on Saturday 25 Oct 2014 (Local Time) from KPOV Reporting Station
Overcast Overcast  
Wind Chill: 64°   Ceiling: 3700
Heat Index: 64°   Visibility: 10mi
Dew Point: 46°   Wind: 9mph
Humidity: 52%   Direction: 240°WSW
Pressure: 29.82"   Gusts: 18mph
Location:  41.16°N, 81.24°W
Report Text: KPOV 251657Z AUTO 24008G16KT 10SM OVC037 18/08 A2982 RMK AO2 T01790079
Loading
Personal Weather Stations






























Interactive Weather Map New forecast layout! Learn more

10-Day Weather Forecast

Advertisements
Track Severe Weather on mobile